createdAt,value
2018-11-23T00:00:32.497Z,3.53
2018-11-23T00:01:35.901Z,4.63
2018-11-23T00:02:39.321Z,8.53
2018-11-23T00:03:42.729Z,3.07
2018-11-23T00:04:46.180Z,4.50
2018-11-23T00:05:49.605Z,4.20
2018-11-23T00:06:52.992Z,3.30
2018-11-23T00:07:57.136Z,3.33
2018-11-23T00:09:00.525Z,3.97
2018-11-23T00:10:04.080Z,3.93
2018-11-23T00:11:07.470Z,6.93
2018-11-23T00:12:10.842Z,3.50
2018-11-23T00:13:14.301Z,4.37
2018-11-23T00:14:17.781Z,5.90
2018-11-23T00:15:22.284Z,3.93
2018-11-23T00:16:25.713Z,5.43
2018-11-23T00:17:29.112Z,5.10
2018-11-23T00:18:32.547Z,9.53
2018-11-23T00:19:35.991Z,3.97
2018-11-23T00:20:39.389Z,4.70
2018-11-23T00:21:42.758Z,2.87
2018-11-23T00:22:46.263Z,6.57
2018-11-23T00:23:49.674Z,4.33
2018-11-23T00:24:53.120Z,5.80
2018-11-23T00:25:56.535Z,3.37
2018-11-23T00:26:59.927Z,5.70
2018-11-23T00:28:03.453Z,3.23
2018-11-23T00:29:06.873Z,6.20
2018-11-23T00:30:12.461Z,4.77
2018-11-23T00:31:15.976Z,4.70
2018-11-23T00:32:19.350Z,3.73
2018-11-23T00:33:22.721Z,5.10
2018-11-23T00:34:26.126Z,4.90
2018-11-23T00:35:30.707Z,7.23
2018-11-23T00:36:34.118Z,6.00
2018-11-23T00:37:37.515Z,5.03
2018-11-23T00:38:40.916Z,2.60
2018-11-23T00:39:45.106Z,6.10
2018-11-23T00:40:48.513Z,6.43
2018-11-23T00:41:52.117Z,4.33
2018-11-23T00:42:55.823Z,6.20
2018-11-23T00:43:59.262Z,7.00
2018-11-23T00:45:02.800Z,3.60
2018-11-23T00:46:07.150Z,2.30
2018-11-23T00:47:10.551Z,6.83
2018-11-23T00:48:13.970Z,3.77
2018-11-23T00:49:17.398Z,3.60
2018-11-23T00:50:22.022Z,4.30
2018-11-23T00:51:25.457Z,3.10
2018-11-23T00:52:28.875Z,10.20
2018-11-23T00:53:32.302Z,6.33
2018-11-23T00:54:35.721Z,3.50
2018-11-23T00:55:39.143Z,3.47
2018-11-23T00:56:42.568Z,8.33
2018-11-23T00:57:45.997Z,4.00
2018-11-23T00:58:49.424Z,4.93
2018-11-23T00:59:52.870Z,4.03
2018-11-23T01:00:56.256Z,5.90
2018-11-23T01:02:03.776Z,3.17
2018-11-23T01:03:07.181Z,2.93
2018-11-23T01:04:10.624Z,4.07
2018-11-23T01:05:15.679Z,3.07
2018-11-23T01:06:19.118Z,6.40
2018-11-23T01:07:22.586Z,8.20
2018-11-23T01:08:25.985Z,7.80
2018-11-23T01:09:29.375Z,2.93
2018-11-23T01:10:32.807Z,3.77
2018-11-23T01:11:36.261Z,5.60
2018-11-23T01:12:39.906Z,3.73
2018-11-23T01:13:43.429Z,5.23
2018-11-23T01:14:46.807Z,4.27
2018-11-23T01:15:50.242Z,14.03
2018-11-23T01:16:53.653Z,7.63
2018-11-23T01:17:57.083Z,2.63
2018-11-23T01:19:00.500Z,3.73
2018-11-23T01:20:04.187Z,2.90
2018-11-23T01:21:07.664Z,3.37
2018-11-23T01:22:11.179Z,4.13
2018-11-23T01:23:14.574Z,6.20
2018-11-23T01:24:18.258Z,4.97
2018-11-23T01:25:22.642Z,3.13
2018-11-23T01:26:26.209Z,3.97
2018-11-23T01:27:29.610Z,2.53
2018-11-23T01:28:33.041Z,5.17
2018-11-23T01:29:36.480Z,3.93
2018-11-23T01:30:39.992Z,4.27
2018-11-23T01:31:43.753Z,3.60
2018-11-23T01:32:47.301Z,5.03
2018-11-23T01:33:50.775Z,3.80
2018-11-23T01:34:55.503Z,2.50
2018-11-23T01:35:58.943Z,4.27
2018-11-23T01:37:02.610Z,4.70
2018-11-23T01:38:06.111Z,2.57
2018-11-23T01:39:10.679Z,2.70
2018-11-23T01:40:30.172Z,2.53
2018-11-23T01:41:33.609Z,3.10
2018-11-23T01:42:37.084Z,3.20
2018-11-23T01:43:40.459Z,9.63
2018-11-23T01:44:51.316Z,5.10
2018-11-23T01:45:54.746Z,3.07
2018-11-23T01:46:58.157Z,2.10
2018-11-23T01:48:01.692Z,4.90
2018-11-23T01:49:05.668Z,8.23
2018-11-23T01:50:12.308Z,7.20
2018-11-23T01:51:15.898Z,4.63
2018-11-23T01:52:19.335Z,3.40
2018-11-23T01:53:22.755Z,3.57
2018-11-23T01:54:26.174Z,4.53
2018-11-23T01:55:29.577Z,4.57
2018-11-23T01:56:33.308Z,4.60
2018-11-23T01:57:37.246Z,4.20
2018-11-23T01:58:40.827Z,6.50
2018-11-23T01:59:44.296Z,3.00
2018-11-23T02:00:47.739Z,1.73
2018-11-23T02:01:51.170Z,1.83
2018-11-23T02:02:55.238Z,4.10
2018-11-23T02:03:58.678Z,3.60
2018-11-23T02:05:02.101Z,8.03
2018-11-23T02:06:05.646Z,4.27
2018-11-23T02:07:09.071Z,4.07
2018-11-23T02:08:12.908Z,5.40
2018-11-23T02:09:16.450Z,3.20
2018-11-23T02:10:20.629Z,1.73
2018-11-23T02:11:24.430Z,2.60
2018-11-23T02:12:27.868Z,9.30
2018-11-23T02:13:31.346Z,5.20
2018-11-23T02:14:34.786Z,1.70
2018-11-23T02:15:38.189Z,3.83
2018-11-23T02:16:41.607Z,6.50
2018-11-23T02:17:45.195Z,6.70
2018-11-23T02:18:48.609Z,2.67
2018-11-23T02:19:53.748Z,3.00
2018-11-23T02:20:57.305Z,2.90
2018-11-23T02:22:00.726Z,5.17
2018-11-23T02:23:04.114Z,2.00
2018-11-23T02:24:07.571Z,2.90
2018-11-23T02:25:11.062Z,2.40
2018-11-23T02:26:15.142Z,5.90
2018-11-23T02:27:18.567Z,7.30
2018-11-23T02:28:22.041Z,3.40
2018-11-23T02:29:25.552Z,2.20
2018-11-23T02:30:29.060Z,2.67
2018-11-23T02:31:33.027Z,4.33
2018-11-23T02:32:36.806Z,6.30
2018-11-23T02:33:41.308Z,6.73
2018-11-23T02:34:44.762Z,3.10
2018-11-23T02:35:48.427Z,7.33
2018-11-23T02:36:51.909Z,3.60
2018-11-23T02:37:55.400Z,2.63
2018-11-23T02:38:58.872Z,2.60
2018-11-23T02:40:02.299Z,4.17
2018-11-23T02:41:05.846Z,1.97
2018-11-23T02:42:09.524Z,5.03
2018-11-23T02:43:12.947Z,2.60
2018-11-23T02:44:16.793Z,2.70
2018-11-23T02:45:21.418Z,7.13
2018-11-23T02:46:24.848Z,4.03
2018-11-23T02:47:28.448Z,4.40
2018-11-23T02:48:32.361Z,3.40
2018-11-23T02:49:36.293Z,3.40
2018-11-23T02:50:39.712Z,2.23
2018-11-23T02:51:43.220Z,2.83
2018-11-23T02:52:47.170Z,5.77
2018-11-23T02:53:50.623Z,2.07
2018-11-23T02:54:54.038Z,2.63
2018-11-23T02:55:57.592Z,2.70
2018-11-23T02:57:01.068Z,2.40
2018-11-23T02:58:05.100Z,3.57
2018-11-23T02:59:08.783Z,2.50
2018-11-23T03:00:14.896Z,2.73
2018-11-23T03:01:18.413Z,3.47
2018-11-23T03:02:21.843Z,2.60
2018-11-23T03:03:25.321Z,1.90
2018-11-23T03:04:28.765Z,3.00
2018-11-23T03:05:32.184Z,1.70
2018-11-23T03:06:35.854Z,2.00
2018-11-23T03:07:39.361Z,2.13
2018-11-23T03:08:42.813Z,2.53
2018-11-23T03:09:46.297Z,2.50
2018-11-23T03:10:49.735Z,4.63
2018-11-23T03:11:53.161Z,2.60
2018-11-23T03:12:56.586Z,4.90
2018-11-23T03:14:00.110Z,2.50
2018-11-23T03:15:03.746Z,1.70
2018-11-23T03:16:07.183Z,3.33
2018-11-23T03:17:10.628Z,3.30
2018-11-23T03:18:14.118Z,4.70
2018-11-23T03:19:17.631Z,3.30
2018-11-23T03:20:22.164Z,4.37
2018-11-23T03:21:25.715Z,2.00
2018-11-23T03:22:29.191Z,3.73
2018-11-23T03:23:32.739Z,5.53
2018-11-23T03:24:36.186Z,4.10
2018-11-23T03:25:39.663Z,2.10
2018-11-23T03:26:43.093Z,2.27
2018-11-23T03:27:46.522Z,3.63
2018-11-23T03:28:50.037Z,5.60
2018-11-23T03:29:53.438Z,9.27
2018-11-23T03:30:56.889Z,2.90
2018-11-23T03:32:00.351Z,6.00
2018-11-23T03:33:03.798Z,1.97
2018-11-23T03:34:07.434Z,2.07
2018-11-23T03:35:10.923Z,1.43
2018-11-23T03:36:14.890Z,2.77
2018-11-23T03:37:18.647Z,4.23
2018-11-23T03:38:22.063Z,4.83
2018-11-23T03:39:25.559Z,3.03
2018-11-23T03:40:29.021Z,2.80
2018-11-23T03:41:32.431Z,1.50
2018-11-23T03:42:35.843Z,6.53
2018-11-23T03:43:39.304Z,7.03
2018-11-23T03:44:43.032Z,3.13
2018-11-23T03:45:46.606Z,3.53
2018-11-23T03:46:50.048Z,2.90
2018-11-23T03:47:53.458Z,3.80
2018-11-23T03:48:57.076Z,2.53
2018-11-23T03:50:00.822Z,5.37
2018-11-23T03:51:04.254Z,3.40
2018-11-23T03:52:07.914Z,2.07
2018-11-23T03:53:11.361Z,3.20
2018-11-23T03:54:15.025Z,2.17
2018-11-23T03:55:18.588Z,4.23
2018-11-23T03:56:22.007Z,5.40
2018-11-23T03:57:25.472Z,2.87
2018-11-23T03:58:28.868Z,4.90
2018-11-23T03:59:32.382Z,5.07
2018-11-23T04:00:35.796Z,2.27
2018-11-23T04:01:39.217Z,2.80
2018-11-23T04:02:42.686Z,3.83
2018-11-23T04:03:46.482Z,3.50
2018-11-23T04:04:50.035Z,2.57
2018-11-23T04:05:53.510Z,3.70
2018-11-23T04:06:56.910Z,2.47
2018-11-23T04:08:00.584Z,1.70
2018-11-23T04:09:04.705Z,2.87
2018-11-23T04:10:09.797Z,2.80
2018-11-23T04:11:13.255Z,2.20
2018-11-23T04:12:16.760Z,4.20
2018-11-23T04:13:20.206Z,2.80
2018-11-23T04:14:23.627Z,3.97
2018-11-23T04:15:27.084Z,2.77
2018-11-23T04:16:30.561Z,4.50
2018-11-23T04:17:34.018Z,3.83
2018-11-23T04:18:37.582Z,3.27
2018-11-23T04:19:41.009Z,4.30
2018-11-23T04:20:50.773Z,2.70
2018-11-23T04:21:54.363Z,5.70
2018-11-23T04:22:57.880Z,3.13
2018-11-23T04:24:01.331Z,3.03
2018-11-23T04:25:04.903Z,2.00
2018-11-23T04:26:08.561Z,5.33
2018-11-23T04:27:12.142Z,6.23
2018-11-23T04:28:15.698Z,1.60
2018-11-23T04:29:19.236Z,1.60
2018-11-23T04:30:22.675Z,8.33
2018-11-23T04:31:26.195Z,8.43
2018-11-23T04:32:29.711Z,1.90
2018-11-23T04:33:33.183Z,5.10
2018-11-23T04:34:37.008Z,3.20
2018-11-23T04:35:40.464Z,2.10
2018-11-23T04:36:44.610Z,3.60
2018-11-23T04:37:48.996Z,2.90
2018-11-23T04:38:52.670Z,2.97
2018-11-23T04:39:56.081Z,1.67
2018-11-23T04:40:59.738Z,4.20
2018-11-23T04:42:03.293Z,2.17
2018-11-23T04:43:06.860Z,3.97
2018-11-23T04:44:10.284Z,2.00
2018-11-23T04:45:14.337Z,3.20
2018-11-23T04:46:18.058Z,1.70
2018-11-23T04:47:21.619Z,2.70
2018-11-23T04:48:25.253Z,5.73
2018-11-23T04:49:28.685Z,2.50
2018-11-23T04:50:32.348Z,6.40
2018-11-23T04:51:35.801Z,2.20
2018-11-23T04:52:39.317Z,3.73
2018-11-23T04:53:42.923Z,1.60
2018-11-23T04:54:46.361Z,1.93
2018-11-23T04:55:49.841Z,3.03
2018-11-23T04:56:53.298Z,1.40
2018-11-23T04:57:56.790Z,4.20
2018-11-23T04:59:00.181Z,2.30
2018-11-23T05:00:03.763Z,3.03
2018-11-23T05:01:07.573Z,6.80
2018-11-23T05:02:11.108Z,1.93
2018-11-23T05:03:14.830Z,2.93
2018-11-23T05:04:18.270Z,2.47
2018-11-23T05:05:21.786Z,2.80
2018-11-23T05:06:25.282Z,2.47
2018-11-23T05:07:28.721Z,7.53
2018-11-23T05:08:32.535Z,2.73
2018-11-23T05:09:35.983Z,3.33
2018-11-23T05:10:39.446Z,3.13
2018-11-23T05:11:42.886Z,1.77
2018-11-23T05:12:46.807Z,1.40
2018-11-23T05:13:50.351Z,2.33
2018-11-23T05:14:53.749Z,6.57
2018-11-23T05:15:57.251Z,1.90
2018-11-23T05:17:00.711Z,2.67
2018-11-23T05:18:04.570Z,2.00
2018-11-23T05:19:07.983Z,1.73
2018-11-23T05:20:12.101Z,1.90
2018-11-23T05:21:15.554Z,2.93
2018-11-23T05:22:19.004Z,2.70
2018-11-23T05:23:22.419Z,1.87
2018-11-23T05:24:25.856Z,1.67
2018-11-23T05:25:29.304Z,2.30
2018-11-23T05:26:33.357Z,2.47
2018-11-23T05:27:36.927Z,4.00
2018-11-23T05:28:40.360Z,1.87
2018-11-23T05:29:43.809Z,3.60
2018-11-23T05:30:47.277Z,3.80
2018-11-23T05:31:50.703Z,3.47
2018-11-23T05:32:54.558Z,5.07
2018-11-23T05:33:57.973Z,8.60
2018-11-23T05:35:01.401Z,6.70
2018-11-23T05:36:04.869Z,8.93
2018-11-23T05:37:08.397Z,6.30
2018-11-23T05:38:11.859Z,5.40
2018-11-23T05:39:15.499Z,5.90
2018-11-23T05:40:20.415Z,6.83
2018-11-23T05:41:23.907Z,7.37
2018-11-23T05:42:27.362Z,5.93
2018-11-23T05:43:30.810Z,5.50
2018-11-23T05:44:34.260Z,6.33
2018-11-23T05:45:37.818Z,7.00
2018-11-23T05:46:41.276Z,5.97
2018-11-23T05:47:45.088Z,7.47
2018-11-23T05:48:48.744Z,6.93
2018-11-23T05:49:52.171Z,8.03
2018-11-23T05:50:55.783Z,5.60
2018-11-23T05:51:59.234Z,7.57
2018-11-23T05:53:02.703Z,8.33
2018-11-23T05:54:06.527Z,5.40
2018-11-23T05:55:10.584Z,12.60
2018-11-23T05:56:14.093Z,9.03
2018-11-23T05:57:17.877Z,8.60
2018-11-23T05:58:21.297Z,5.93
2018-11-23T05:59:24.683Z,7.90
2018-11-23T06:00:29.755Z,7.10
2018-11-23T06:01:33.299Z,9.83
2018-11-23T06:02:36.932Z,12.10
2018-11-23T06:03:40.443Z,5.90
2018-11-23T06:04:43.885Z,11.53
2018-11-23T06:05:47.537Z,13.13
2018-11-23T06:06:51.018Z,19.10
2018-11-23T06:07:54.576Z,11.50
2018-11-23T06:08:58.333Z,12.17
2018-11-23T06:10:01.807Z,14.87
2018-11-23T06:11:06.319Z,13.40
2018-11-23T06:12:09.787Z,19.33
2018-11-23T06:13:13.234Z,14.03
2018-11-23T06:14:17.138Z,10.03
2018-11-23T06:15:22.667Z,16.50
2018-11-23T06:16:26.094Z,16.57
2018-11-23T06:17:29.762Z,9.73
2018-11-23T06:18:33.448Z,9.77
2018-11-23T06:19:37.014Z,11.23
2018-11-23T06:20:40.673Z,11.80
2018-11-23T06:21:44.099Z,12.27
2018-11-23T06:22:48.564Z,10.20
2018-11-23T06:23:52.112Z,14.17
2018-11-23T06:24:56.120Z,10.17
2018-11-23T06:26:07.186Z,12.40
2018-11-23T06:27:10.667Z,9.47
2018-11-23T06:28:14.538Z,9.60
2018-11-23T06:29:18.540Z,7.97
2018-11-23T06:30:24.585Z,6.37
2018-11-23T06:31:29.533Z,9.50
2018-11-23T06:32:44.560Z,11.23
2018-11-23T06:33:49.631Z,9.27
2018-11-23T06:34:53.530Z,7.23
2018-11-23T06:35:56.960Z,11.47
2018-11-23T06:37:00.415Z,11.20
2018-11-23T06:38:03.856Z,9.33
2018-11-23T06:39:09.305Z,9.57
2018-11-23T06:40:12.793Z,11.63
2018-11-23T06:41:16.322Z,13.00
2018-11-23T06:42:19.793Z,9.53
2018-11-23T06:43:23.432Z,12.73
2018-11-23T06:44:30.054Z,14.43
2018-11-23T06:45:37.017Z,9.20
2018-11-23T06:46:41.869Z,11.23
2018-11-23T06:47:45.319Z,11.80
2018-11-23T06:48:48.750Z,8.80
2018-11-23T06:49:52.143Z,10.17
2018-11-23T06:50:55.912Z,10.07
2018-11-23T06:51:59.310Z,9.03
2018-11-23T06:53:02.747Z,10.63
2018-11-23T06:54:06.327Z,8.50
2018-11-23T06:55:10.666Z,10.77
2018-11-23T06:56:14.383Z,14.93
2018-11-23T06:57:18.207Z,11.10
2018-11-23T06:58:21.779Z,7.77
2018-11-23T06:59:25.237Z,7.73
2018-11-23T07:00:28.693Z,6.90
2018-11-23T07:01:32.409Z,9.07
2018-11-23T07:02:35.828Z,10.33
2018-11-23T07:03:39.277Z,8.07
2018-11-23T07:04:42.869Z,10.33
2018-11-23T07:05:46.480Z,7.77
2018-11-23T07:06:49.986Z,9.80
2018-11-23T07:07:53.420Z,8.53
2018-11-23T07:08:56.829Z,8.30
2018-11-23T07:10:00.248Z,9.07
2018-11-23T07:11:04.203Z,6.53
2018-11-23T07:12:07.659Z,7.70
2018-11-23T07:13:11.163Z,6.77
2018-11-23T07:14:15.581Z,9.73
2018-11-23T07:15:20.521Z,10.00
2018-11-23T07:16:23.944Z,8.13
2018-11-23T07:17:27.783Z,7.73
2018-11-23T07:18:31.357Z,7.80
2018-11-23T07:19:34.933Z,8.13
2018-11-23T07:20:38.535Z,9.73
2018-11-23T07:21:42.089Z,7.90
2018-11-23T07:22:45.621Z,6.17
2018-11-23T07:23:49.241Z,6.57
2018-11-23T07:24:52.641Z,10.03
2018-11-23T07:25:56.137Z,6.80
2018-11-23T07:26:59.533Z,9.80
2018-11-23T07:28:03.064Z,7.97
2018-11-23T07:29:06.579Z,8.03
2018-11-23T07:30:17.521Z,6.70
2018-11-23T07:31:20.981Z,6.90
2018-11-23T07:32:24.397Z,6.20
2018-11-23T07:33:27.822Z,6.60
2018-11-23T07:34:31.402Z,7.33
2018-11-23T07:35:34.867Z,5.77
2018-11-23T07:36:38.369Z,5.63
2018-11-23T07:37:41.811Z,4.90
2018-11-23T07:38:45.229Z,7.33
2018-11-23T07:40:00.028Z,6.07
2018-11-23T07:41:14.947Z,6.47
2018-11-23T07:42:21.428Z,8.27
2018-11-23T07:43:24.905Z,8.30
2018-11-23T07:44:28.561Z,6.40
2018-11-23T07:45:32.445Z,7.60
2018-11-23T07:46:35.947Z,5.70
2018-11-23T07:47:39.438Z,7.20
2018-11-23T07:48:42.859Z,6.23
2018-11-23T07:49:46.506Z,7.37
2018-11-23T07:50:49.984Z,7.47
2018-11-23T07:51:53.410Z,8.33
2018-11-23T07:52:56.858Z,7.57
2018-11-23T07:54:00.282Z,6.60
2018-11-23T07:55:04.005Z,7.70
2018-11-23T07:56:08.632Z,8.40
2018-11-23T07:57:12.627Z,9.50
2018-11-23T07:58:16.272Z,8.20
2018-11-23T07:59:19.681Z,5.30
2018-11-23T08:00:24.213Z,7.53
2018-11-23T08:01:28.301Z,9.30
2018-11-23T08:02:31.730Z,8.17
2018-11-23T08:03:35.213Z,8.50
2018-11-23T08:04:39.730Z,8.50
2018-11-23T08:05:43.559Z,6.50
2018-11-23T08:06:47.108Z,6.87
2018-11-23T08:07:50.583Z,8.20
2018-11-23T08:08:54.844Z,8.13
2018-11-23T08:09:57.505Z,7.00
2018-11-23T08:11:04.825Z,10.10
2018-11-23T08:12:09.401Z,8.47
2018-11-23T08:13:13.632Z,6.73
2018-11-23T08:14:17.316Z,7.63
2018-11-23T08:15:22.060Z,9.27
2018-11-23T08:16:25.498Z,8.00
2018-11-23T08:17:28.950Z,9.67
2018-11-23T08:18:32.424Z,9.67
2018-11-23T08:19:35.867Z,11.53
2018-11-23T08:20:40.974Z,7.20
2018-11-23T08:21:44.567Z,6.20
2018-11-23T08:22:49.466Z,7.43
2018-11-23T08:23:52.874Z,7.50
2018-11-23T08:24:56.301Z,7.70
2018-11-23T08:25:59.656Z,7.37
2018-11-23T08:27:03.113Z,6.80
2018-11-23T08:28:06.882Z,9.30
2018-11-23T08:29:12.104Z,8.93
2018-11-23T08:30:23.191Z,8.10
2018-11-23T08:31:26.902Z,9.60
2018-11-23T08:32:30.374Z,10.70
2018-11-23T08:33:34.161Z,7.90
2018-11-23T08:34:37.577Z,7.37
2018-11-23T08:35:40.994Z,7.70
2018-11-23T08:36:45.769Z,8.53
2018-11-23T08:37:49.424Z,9.37
2018-11-23T08:38:53.229Z,7.80
2018-11-23T08:39:57.943Z,9.80
2018-11-23T08:41:02.484Z,8.80
2018-11-23T08:42:06.730Z,10.30
2018-11-23T08:43:10.690Z,9.37
2018-11-23T08:44:15.274Z,8.67
2018-11-23T08:45:21.901Z,8.40
2018-11-23T08:46:25.338Z,6.40
2018-11-23T08:47:29.439Z,7.50
2018-11-23T08:48:32.881Z,7.67
2018-11-23T08:49:36.356Z,10.17
2018-11-23T08:50:39.841Z,7.93
2018-11-23T08:51:43.283Z,7.33
2018-11-23T08:52:46.730Z,9.17
2018-11-23T08:53:50.157Z,7.47
2018-11-23T08:54:53.607Z,7.87
2018-11-23T08:55:57.074Z,8.77
2018-11-23T08:57:00.556Z,8.63
2018-11-23T08:58:04.037Z,7.67
2018-11-23T08:59:07.442Z,8.67
2018-11-23T09:00:31.386Z,8.70
2018-11-23T09:01:34.815Z,6.80
2018-11-23T09:02:38.214Z,9.67
2018-11-23T09:03:41.641Z,9.90
2018-11-23T09:04:45.105Z,8.03
2018-11-23T09:05:48.532Z,8.37
2018-11-23T09:06:51.927Z,10.00
2018-11-23T09:07:56.291Z,8.70
2018-11-23T09:08:59.666Z,6.17
2018-11-23T09:10:03.117Z,9.10
2018-11-23T09:11:07.221Z,7.60
2018-11-23T09:12:10.698Z,10.00
2018-11-23T09:13:14.163Z,8.43
2018-11-23T09:14:17.570Z,10.00
2018-11-23T09:15:21.025Z,10.50
2018-11-23T09:16:24.475Z,8.17
2018-11-23T09:17:27.898Z,8.50
2018-11-23T09:18:31.700Z,9.80
2018-11-23T09:19:34.938Z,8.77
2018-11-23T09:20:38.347Z,9.20
2018-11-23T09:21:41.749Z,8.20
2018-11-23T09:22:45.540Z,8.83
2018-11-23T09:23:49.035Z,8.37
2018-11-23T09:24:52.612Z,7.30
2018-11-23T09:25:55.997Z,10.13
2018-11-23T09:26:59.422Z,13.00
2018-11-23T09:28:02.858Z,8.53
2018-11-23T09:29:06.383Z,7.60
2018-11-23T09:30:14.517Z,6.93
2018-11-23T09:31:17.967Z,10.23
2018-11-23T09:32:21.415Z,16.37
2018-11-23T09:33:24.860Z,16.20
2018-11-23T09:34:28.372Z,14.00
2018-11-23T09:35:31.808Z,16.13
2018-11-23T09:36:35.267Z,19.70
2018-11-23T09:37:39.543Z,18.60
2018-11-23T09:38:43.041Z,20.67
2018-11-23T09:39:46.603Z,18.37
2018-11-23T09:40:50.065Z,20.17
2018-11-23T09:41:53.457Z,20.83
2018-11-23T09:42:57.718Z,24.27
2018-11-23T09:44:01.162Z,20.07
2018-11-23T09:45:05.520Z,22.00
2018-11-23T09:46:08.953Z,24.00
2018-11-23T09:47:12.376Z,24.37
2018-11-23T09:48:15.925Z,21.87
2018-11-23T09:49:19.335Z,26.10
2018-11-23T09:50:23.710Z,22.57
2018-11-23T09:51:27.217Z,22.53
2018-11-23T09:52:30.693Z,26.90
2018-11-23T09:53:34.149Z,23.70
2018-11-23T09:54:37.559Z,25.10
2018-11-23T09:55:41.788Z,28.43
2018-11-23T09:56:45.708Z,26.50
2018-11-23T09:57:49.482Z,23.97
2018-11-23T09:58:52.913Z,26.93
2018-11-23T09:59:56.390Z,22.53
2018-11-23T10:00:59.863Z,23.43
2018-11-23T10:02:03.300Z,23.17
2018-11-23T10:03:07.350Z,24.20
2018-11-23T10:04:10.770Z,27.27
2018-11-23T10:05:15.007Z,26.13
2018-11-23T10:06:18.494Z,23.87
2018-11-23T10:07:21.933Z,23.63
2018-11-23T10:08:25.400Z,22.80
2018-11-23T10:09:28.888Z,25.60
2018-11-23T10:10:32.472Z,23.97
2018-11-23T10:11:35.925Z,27.90
2018-11-23T10:12:39.689Z,27.40
2018-11-23T10:13:43.090Z,26.40
2018-11-23T10:14:46.531Z,23.50
2018-11-23T10:15:50.066Z,25.30
2018-11-23T10:16:53.523Z,24.20
2018-11-23T10:17:56.984Z,31.70
2018-11-23T10:19:00.419Z,21.87
2018-11-23T10:20:04.576Z,26.33
2018-11-23T10:21:08.023Z,23.80
2018-11-23T10:22:11.464Z,27.43
2018-11-23T10:23:14.888Z,26.13
2018-11-23T10:24:18.294Z,27.13
2018-11-23T10:25:23.117Z,24.33
2018-11-23T10:26:26.588Z,31.03
2018-11-23T10:27:30.029Z,25.83
2018-11-23T10:28:33.478Z,23.20
2018-11-23T10:29:36.885Z,24.93
2018-11-23T10:30:40.309Z,30.03
2018-11-23T10:31:43.742Z,22.73
2018-11-23T10:32:48.315Z,22.60
2018-11-23T10:33:51.870Z,23.60
2018-11-23T10:34:55.321Z,20.83
2018-11-23T10:35:58.840Z,25.83
2018-11-23T10:37:02.231Z,22.73
2018-11-23T10:38:06.476Z,21.23
2018-11-23T10:39:09.957Z,24.97
2018-11-23T10:40:15.835Z,23.73
2018-11-23T10:41:19.268Z,21.50
2018-11-23T10:42:22.954Z,19.87
2018-11-23T10:43:26.429Z,20.23
2018-11-23T10:44:29.857Z,21.90
2018-11-23T10:45:34.006Z,21.47
2018-11-23T10:46:37.458Z,32.93
2018-11-23T10:47:41.180Z,20.13
2018-11-23T10:48:44.665Z,19.90
2018-11-23T10:49:48.092Z,25.80
2018-11-23T10:50:51.525Z,21.17
2018-11-23T10:51:54.942Z,17.43
2018-11-23T10:52:58.351Z,19.57
2018-11-23T10:54:01.792Z,17.60
2018-11-23T10:55:07.050Z,19.97
2018-11-23T10:56:10.474Z,18.80
2018-11-23T10:57:13.917Z,23.27
2018-11-23T10:58:17.442Z,19.10
2018-11-23T10:59:20.868Z,19.87
2018-11-23T11:00:29.743Z,18.00
2018-11-23T11:01:38.417Z,18.23
2018-11-23T11:02:45.182Z,17.53
2018-11-23T11:03:53.797Z,18.43
2018-11-23T11:05:30.668Z,19.93
2018-11-23T11:06:39.319Z,19.77
2018-11-23T11:07:42.717Z,16.60
2018-11-23T11:08:46.487Z,15.40
2018-11-23T11:09:49.934Z,15.77
2018-11-23T11:10:53.628Z,17.03
2018-11-23T11:11:57.044Z,15.80
2018-11-23T11:13:00.466Z,17.73
2018-11-23T11:14:03.948Z,15.50
2018-11-23T11:15:08.198Z,13.70
2018-11-23T11:16:14.566Z,16.23
2018-11-23T11:17:18.069Z,13.37
2018-11-23T11:18:21.479Z,15.10
2018-11-23T11:19:25.396Z,15.17
2018-11-23T11:20:28.835Z,13.23
2018-11-23T11:21:32.278Z,15.13
2018-11-23T11:22:35.838Z,18.43
2018-11-23T11:23:39.393Z,13.90
2018-11-23T11:24:42.920Z,13.10
2018-11-23T11:25:47.195Z,11.40
2018-11-23T11:26:50.621Z,13.07
2018-11-23T11:27:54.211Z,11.63
2018-11-23T11:28:57.693Z,14.03
2018-11-23T11:30:01.130Z,9.33
2018-11-23T11:31:04.965Z,9.63
2018-11-23T11:32:08.375Z,13.13
2018-11-23T11:33:11.793Z,10.87
2018-11-23T11:34:15.256Z,10.37
2018-11-23T11:35:18.721Z,11.40
2018-11-23T11:36:22.168Z,10.70
2018-11-23T11:37:25.603Z,11.53
2018-11-23T11:38:29.093Z,10.43
2018-11-23T11:39:32.468Z,10.57
2018-11-23T11:40:35.910Z,9.33
2018-11-23T11:41:39.532Z,10.90
2018-11-23T11:42:43.513Z,9.20
2018-11-23T11:43:47.008Z,8.43
2018-11-23T11:44:50.461Z,8.93
2018-11-23T11:45:53.889Z,12.47
2018-11-23T11:46:57.333Z,8.17
2018-11-23T11:48:00.751Z,10.03
2018-11-23T11:49:04.399Z,8.97
2018-11-23T11:50:09.630Z,10.70
2018-11-23T11:51:13.218Z,9.67
2018-11-23T11:52:16.634Z,10.13
2018-11-23T11:53:20.068Z,9.70
2018-11-23T11:54:23.491Z,11.30
2018-11-23T11:55:26.887Z,13.97
2018-11-23T11:56:30.339Z,10.47
2018-11-23T11:57:33.735Z,8.50
2018-11-23T11:58:37.430Z,9.90
2018-11-23T11:59:40.883Z,9.73
2018-11-23T12:00:44.311Z,7.17
2018-11-23T12:01:47.955Z,8.60
2018-11-23T12:02:51.353Z,9.27
2018-11-23T12:03:55.318Z,8.47
2018-11-23T12:04:58.739Z,6.50
2018-11-23T12:06:02.155Z,8.00
2018-11-23T12:07:06.229Z,8.47
2018-11-23T12:08:09.629Z,8.37
2018-11-23T12:09:13.150Z,9.70
2018-11-23T12:10:19.485Z,9.53
2018-11-23T12:11:22.911Z,11.20
2018-11-23T12:12:26.526Z,8.70
2018-11-23T12:13:29.939Z,9.00
2018-11-23T12:14:33.351Z,8.23
2018-11-23T12:15:36.750Z,10.80
2018-11-23T12:16:40.194Z,9.57
2018-11-23T12:17:43.853Z,13.27
2018-11-23T12:18:47.318Z,8.63
2018-11-23T12:19:51.608Z,9.30
2018-11-23T12:20:55.172Z,8.60
2018-11-23T12:21:58.709Z,10.40
2018-11-23T12:23:02.472Z,10.37
2018-11-23T12:24:06.586Z,10.13
2018-11-23T12:25:10.399Z,7.93
2018-11-23T12:26:14.423Z,10.73
2018-11-23T12:27:17.918Z,8.47
2018-11-23T12:28:21.340Z,10.60
2018-11-23T12:29:24.751Z,8.20
2018-11-23T12:30:29.131Z,11.30
2018-11-23T12:31:32.625Z,9.00
2018-11-23T12:32:36.062Z,8.90
2018-11-23T12:33:39.471Z,8.47
2018-11-23T12:34:42.930Z,8.63
2018-11-23T12:35:46.646Z,11.70
2018-11-23T12:36:50.128Z,9.70
2018-11-23T12:37:53.595Z,10.10
2018-11-23T12:38:56.983Z,14.63
2018-11-23T12:40:00.411Z,8.07
2018-11-23T12:41:03.852Z,10.90
2018-11-23T12:42:07.288Z,11.20
2018-11-23T12:43:10.721Z,8.50
2018-11-23T12:44:14.389Z,11.13
2018-11-23T12:45:20.916Z,8.20
2018-11-23T12:46:24.314Z,8.50
2018-11-23T12:47:27.702Z,8.10
2018-11-23T12:48:31.142Z,8.40
2018-11-23T12:49:34.570Z,9.80
2018-11-23T12:50:38.065Z,8.60
2018-11-23T12:51:41.486Z,8.20
2018-11-23T12:52:45.109Z,8.80
2018-11-23T12:53:48.524Z,7.53
2018-11-23T12:54:51.944Z,10.00
2018-11-23T12:55:55.373Z,8.73
2018-11-23T12:56:58.800Z,9.30
2018-11-23T12:58:02.234Z,9.57
2018-11-23T12:59:05.987Z,8.17
2018-11-23T13:00:16.624Z,7.57
2018-11-23T13:01:20.509Z,9.03
2018-11-23T13:02:23.936Z,7.70
2018-11-23T13:03:27.597Z,7.97
2018-11-23T13:04:31.394Z,6.20
2018-11-23T13:05:35.779Z,8.57
2018-11-23T13:06:39.174Z,6.63
2018-11-23T13:07:42.615Z,8.53
2018-11-23T13:08:46.121Z,7.23
2018-11-23T13:09:49.539Z,11.97
2018-11-23T13:10:52.933Z,7.20
2018-11-23T13:11:56.382Z,7.20
2018-11-23T13:13:00.438Z,7.23
2018-11-23T13:14:03.875Z,8.70
2018-11-23T13:15:07.991Z,9.30
2018-11-23T13:16:11.421Z,8.93
2018-11-23T13:17:14.876Z,7.20
2018-11-23T13:18:18.348Z,10.60
2018-11-23T13:19:21.762Z,9.63
2018-11-23T13:20:25.257Z,8.93
2018-11-23T13:21:28.710Z,6.83
2018-11-23T13:22:32.133Z,7.13
2018-11-23T13:23:35.540Z,6.80
2018-11-23T13:24:38.977Z,8.93
2018-11-23T13:25:42.427Z,7.83
2018-11-23T13:26:45.866Z,6.63
2018-11-23T13:27:49.274Z,6.30
2018-11-23T13:28:52.678Z,7.27
2018-11-23T13:29:56.094Z,5.70
2018-11-23T13:30:59.513Z,21.60
2018-11-23T13:32:02.935Z,7.73
2018-11-23T13:33:06.454Z,10.63
2018-11-23T13:34:09.883Z,15.50
2018-11-23T13:35:15.188Z,7.10
2018-11-23T13:36:18.649Z,6.90
2018-11-23T13:37:22.068Z,6.90
2018-11-23T13:38:25.475Z,5.67
2018-11-23T13:39:28.860Z,8.33
2018-11-23T13:40:32.348Z,9.23
2018-11-23T13:41:35.820Z,7.63
2018-11-23T13:42:39.381Z,16.53
2018-11-23T13:43:42.842Z,7.23
2018-11-23T13:44:46.410Z,9.20
2018-11-23T13:45:49.890Z,6.97
2018-11-23T13:46:53.337Z,10.23
2018-11-23T13:47:56.764Z,14.43
2018-11-23T13:49:00.225Z,8.80
2018-11-23T13:50:03.929Z,7.73
2018-11-23T13:51:07.349Z,6.00
2018-11-23T13:52:10.763Z,7.93
2018-11-23T13:53:14.217Z,7.80
2018-11-23T13:54:17.720Z,6.27
2018-11-23T13:55:21.112Z,6.00
2018-11-23T13:56:24.549Z,5.03
2018-11-23T13:57:28.005Z,18.00
2018-11-23T13:58:31.454Z,5.33
2018-11-23T13:59:34.931Z,6.60
2018-11-23T14:00:38.342Z,7.60
2018-11-23T14:01:41.760Z,6.47
2018-11-23T14:02:45.681Z,6.90